Time,TemperatureF,DewpointF,PressureIn,WindDirection,WindDirectionDegrees,WindSpeedMPH,WindSpeedGustMPH,Humidity,HourlyPrecipIn,Conditions,Clouds,dailyrainin,SoftwareType,DateUTC
2014-02-05 00:00:00,19.5,17.6,30.00,NE,53,16.0,19.0,92,0.00,,,0.00,Wunderground v.1.15,2014-02-05 05:00:00,
2014-02-05 00:02:00,19.5,17.6,30.00,ENE,60,17.0,19.0,92,0.00,,,0.00,Wunderground v.1.15,2014-02-05 05:02:00,
2014-02-05 00:08:00,19.6,17.7,30.00,ENE,65,18.0,20.0,92,0.00,,,0.00,Wunderground v.1.15,2014-02-05 05:08:00,
2014-02-05 00:14:00,19.5,17.6,29.98,ENE,60,18.0,19.0,92,0.00,,,0.00,Wunderground v.1.15,2014-02-05 05:14:00,
2014-02-05 00:18:00,19.5,17.6,29.98,NE,49,17.0,19.0,92,0.00,,,0.00,Wunderground v.1.15,2014-02-05 05:18:00,
2014-02-05 00:24:00,19.5,17.6,29.97,NE,54,18.0,20.0,92,0.00,,,0.00,Wunderground v.1.15,2014-02-05 05:24:00,
2014-02-05 00:28:00,19.6,17.7,29.97,ENE,57,18.0,20.0,92,0.00,,,0.00,Wunderground v.1.15,2014-02-05 05:28:00,
2014-02-05 00:32:00,19.6,17.7,29.98,NE,56,18.0,18.0,92,0.00,,,0.00,Wunderground v.1.15,2014-02-05 05:32:00,
2014-02-05 00:38:00,19.6,17.7,29.98,NE,42,16.0,18.0,92,0.00,,,0.00,Wunderground v.1.15,2014-02-05 05:38:00,
2014-02-05 00:44:00,19.6,17.7,29.98,NE,47,16.0,20.0,92,0.00,,,0.00,Wunderground v.1.15,2014-02-05 05:44:00,
2014-02-05 00:50:00,19.6,17.7,29.97,NE,49,16.0,22.0,92,0.00,,,0.00,Wunderground v.1.15,2014-02-05 05:50:00,
2014-02-05 00:56:00,19.7,17.5,29.95,ENE,58,17.0,22.0,91,0.00,,,0.00,Wunderground v.1.15,2014-02-05 05:56:00,
2014-02-05 01:02:00,19.7,17.5,29.95,ENE,58,18.0,20.0,91,0.00,,,0.00,Wunderground v.1.15,2014-02-05 06:02:00,
2014-02-05 01:08:00,19.7,17.5,29.95,NE,49,18.0,20.0,91,0.00,,,0.00,Wunderground v.1.15,2014-02-05 06:08:00,
2014-02-05 01:14:00,19.8,17.6,29.95,NE,48,17.0,21.0,91,0.00,,,0.00,Wunderground v.1.15,2014-02-05 06:14:00,
2014-02-05 01:20:00,19.8,17.6,29.94,NE,50,17.0,18.0,91,0.00,,,0.00,Wunderground v.1.15,2014-02-05 06:20:00,
2014-02-05 01:26:00,19.8,17.6,29.95,NE,50,17.0,20.0,91,0.00,,,0.00,Wunderground v.1.15,2014-02-05 06:26:00,
2014-02-05 01:32:00,19.9,17.7,29.95,NE,56,17.0,19.0,91,0.00,,,0.00,Wunderground v.1.15,2014-02-05 06:32:00,
2014-02-05 01:38:00,19.9,17.7,29.95,ENE,58,18.0,20.0,91,0.00,,,0.00,Wunderground v.1.15,2014-02-05 06:38:00,
2014-02-05 01:44:00,20.0,17.8,29.94,NE,53,17.0,18.0,91,0.00,,,0.00,Wunderground v.1.15,2014-02-05 06:44:00,
2014-02-05 01:50:00,20.0,17.8,29.93,NE,45,17.0,17.0,91,0.00,,,0.00,Wunderground v.1.15,2014-02-05 06:50:00,
2014-02-05 01:56:00,20.0,17.8,29.93,NE,48,17.0,17.0,91,0.00,,,0.00,Wunderground v.1.15,2014-02-05 06:56:00,
2014-02-05 02:02:00,20.0,17.8,29.94,NE,49,16.0,17.0,91,0.00,,,0.00,Wunderground v.1.15,2014-02-05 07:02:00,
2014-02-05 02:08:00,20.0,17.8,29.93,NE,49,15.0,17.0,91,0.00,,,0.00,Wunderground v.1.15,2014-02-05 07:08:00,
2014-02-05 02:14:00,20.0,17.8,29.92,NE,53,16.0,18.0,91,0.00,,,0.00,Wunderground v.1.15,2014-02-05 07:14:00,
2014-02-05 02:20:00,20.0,18.1,29.92,NE,46,16.0,16.0,92,0.00,,,0.00,Wunderground v.1.15,2014-02-05 07:20:00,
2014-02-05 02:26:00,20.0,18.1,29.90,NE,54,17.0,17.0,92,0.00,,,0.00,Wunderground v.1.15,2014-02-05 07:26:00,
2014-02-05 02:32:00,19.9,18.0,29.90,NE,53,17.0,25.0,92,0.00,,,0.00,Wunderground v.1.15,2014-02-05 07:32:00,
2014-02-05 02:38:00,19.8,17.9,29.89,NE,49,17.0,25.0,92,0.00,,,0.00,Wunderground v.1.15,2014-02-05 07:38:00,
2014-02-05 02:44:00,19.8,17.9,29.88,NE,53,16.0,19.0,92,0.00,,,0.00,Wunderground v.1.15,2014-02-05 07:44:00,
2014-02-05 02:50:00,19.6,17.7,29.87,NE,46,17.0,20.0,92,0.00,,,0.00,Wunderground v.1.15,2014-02-05 07:50:00,
2014-02-05 02:56:00,19.6,17.7,29.86,NE,55,18.0,20.0,92,0.00,,,0.00,Wunderground v.1.15,2014-02-05 07:56:00,
2014-02-05 03:02:00,19.5,17.6,29.86,NE,49,17.0,18.0,92,0.00,,,0.00,Wunderground v.1.15,2014-02-05 08:02:00,
2014-02-05 03:08:00,19.5,17.6,29.85,NE,54,17.0,19.0,92,0.00,,,0.00,Wunderground v.1.15,2014-02-05 08:08:00,
2014-02-05 03:14:00,19.5,17.6,29.85,ENE,61,18.0,23.0,92,0.00,,,0.00,Wunderground v.1.15,2014-02-05 08:14:00,
2014-02-05 03:20:00,19.5,17.6,29.86,NE,48,17.0,17.0,92,0.00,,,0.00,Wunderground v.1.15,2014-02-05 08:20:00,
2014-02-05 03:26:00,19.6,17.4,29.86,NE,54,16.0,17.0,91,0.00,,,0.00,Wunderground v.1.15,2014-02-05 08:26:00,
2014-02-05 03:32:00,19.6,17.4,29.86,NE,44,16.0,19.0,91,0.00,,,0.00,Wunderground v.1.15,2014-02-05 08:32:00,
2014-02-05 03:38:00,19.6,17.4,29.85,NE,50,15.0,19.0,91,0.00,,,0.00,Wunderground v.1.15,2014-02-05 08:38:00,
2014-02-05 03:44:00,19.6,17.4,29.85,NE,53,15.0,20.0,91,0.00,,,0.00,Wunderground v.1.15,2014-02-05 08:44:00,
2014-02-05 03:50:00,19.6,17.4,29.84,NE,49,17.0,20.0,91,0.00,,,0.00,Wunderground v.1.15,2014-02-05 08:50:00,
2014-02-05 03:56:00,19.6,17.4,29.84,NE,49,17.0,20.0,91,0.00,,,0.00,Wunderground v.1.15,2014-02-05 08:56:00,
2014-02-05 04:02:00,19.6,17.7,29.84,NE,50,15.0,16.0,92,0.00,,,0.00,Wunderground v.1.15,2014-02-05 09:02:00,
2014-02-05 04:08:00,19.7,17.8,29.84,NE,47,16.0,16.0,92,0.00,,,0.00,Wunderground v.1.15,2014-02-05 09:08:00,
2014-02-05 04:14:00,19.7,17.8,29.85,NE,49,15.0,16.0,92,0.00,,,0.00,Wunderground v.1.15,2014-02-05 09:14:00,
2014-02-05 04:20:00,19.7,17.8,29.85,NE,41,13.0,13.0,92,0.00,,,0.00,Wunderground v.1.15,2014-02-05 09:20:00,
2014-02-05 04:26:00,19.6,17.7,29.84,NE,37,12.0,18.0,92,0.00,,,0.00,Wunderground v.1.15,2014-02-05 09:26:00,
2014-02-05 04:32:00,19.6,17.7,29.84,NE,43,13.0,16.0,92,0.00,,,0.00,Wunderground v.1.15,2014-02-05 09:32:00,
2014-02-05 04:38:00,19.5,17.6,29.84,NNE,27,12.0,16.0,92,0.00,,,0.00,Wunderground v.1.15,2014-02-05 09:38:00,
2014-02-05 04:44:00,19.5,17.6,29.85,NE,46,11.0,12.0,92,0.00,,,0.00,Wunderground v.1.15,2014-02-05 09:44:00,
2014-02-05 04:50:00,19.6,17.7,29.84,NE,40,10.0,12.0,92,0.00,,,0.00,Wunderground v.1.15,2014-02-05 09:50:00,
2014-02-05 04:56:00,19.6,17.7,29.84,NE,44,11.0,12.0,92,0.00,,,0.00,Wunderground v.1.15,2014-02-05 09:56:00,
2014-02-05 05:02:00,19.5,17.6,29.84,NE,37,10.0,12.0,92,0.00,,,0.00,Wunderground v.1.15,2014-02-05 10:02:00,
2014-02-05 05:08:00,19.5,17.6,29.84,NE,37,10.0,13.0,92,0.00,,,0.00,Wunderground v.1.15,2014-02-05 10:08:00,
2014-02-05 05:14:00,19.4,17.5,29.85,NNE,26,9.0,12.0,92,0.00,,,0.00,Wunderground v.1.15,2014-02-05 10:14:00,
2014-02-05 05:20:00,19.5,17.6,29.86,NNE,13,8.0,8.0,92,0.00,,,0.00,Wunderground v.1.15,2014-02-05 10:20:00,
2014-02-05 05:26:00,19.4,17.5,29.85,North,353,9.0,12.0,92,0.00,,,0.00,Wunderground v.1.15,2014-02-05 10:26:00,
2014-02-05 05:32:00,19.3,17.4,29.85,NNE,30,9.0,10.0,92,0.00,,,0.00,Wunderground v.1.15,2014-02-05 10:32:00,
2014-02-05 05:38:00,19.3,17.4,29.85,North,8,10.0,12.0,92,0.00,,,0.00,Wunderground v.1.15,2014-02-05 10:38:00,
2014-02-05 05:48:00,19.3,17.4,29.86,NNE,27,12.0,12.0,92,0.00,,,0.00,Wunderground v.1.15,2014-02-05 10:48:00,
2014-02-05 05:54:00,19.3,17.4,29.86,NNE,25,12.0,14.0,92,0.00,,,0.00,Wunderground v.1.15,2014-02-05 10:54:00,
2014-02-05 06:00:00,19.3,17.4,29.86,NE,39,10.0,10.0,92,0.00,,,0.00,Wunderground v.1.15,2014-02-05 11:00:00,
2014-02-05 06:06:00,19.4,17.5,29.86,NE,41,10.0,13.0,92,0.00,,,0.00,Wunderground v.1.15,2014-02-05 11:06:00,
2014-02-05 06:12:00,19.5,17.6,29.88,NNE,14,9.0,12.0,92,0.00,,,0.00,Wunderground v.1.15,2014-02-05 11:12:00,
2014-02-05 06:18:00,19.6,17.7,29.88,North,8,7.0,12.0,92,0.00,,,0.00,Wunderground v.1.15,2014-02-05 11:18:00,
2014-02-05 06:24:00,19.6,17.7,29.88,NNE,13,7.0,12.0,92,0.00,,,0.00,Wunderground v.1.15,2014-02-05 11:24:00,
2014-02-05 06:30:00,19.6,17.7,29.89,NNE,14,7.0,12.0,92,0.00,,,0.00,Wunderground v.1.15,2014-02-05 11:30:00,
2014-02-05 06:36:00,19.5,17.6,29.88,NNE,33,8.0,12.0,92,0.00,,,0.00,Wunderground v.1.15,2014-02-05 11:36:00,
2014-02-05 06:42:00,19.4,17.5,29.89,North,6,9.0,11.0,92,0.00,,,0.00,Wunderground v.1.15,2014-02-05 11:42:00,
2014-02-05 06:48:00,19.4,17.5,29.88,NNE,19,8.0,12.0,92,0.00,,,0.00,Wunderground v.1.15,2014-02-05 11:48:00,
2014-02-05 06:54:00,19.4,17.5,29.88,NNE,29,8.0,12.0,92,0.00,,,0.00,Wunderground v.1.15,2014-02-05 11:54:00,
2014-02-05 07:00:00,19.4,17.5,29.89,NNE,26,8.0,8.0,92,0.00,,,0.00,Wunderground v.1.15,2014-02-05 12:00:00,
2014-02-05 07:06:00,19.4,17.5,29.88,NNE,29,8.0,12.0,92,0.00,,,0.00,Wunderground v.1.15,2014-02-05 12:06:00,
2014-02-05 07:12:00,19.4,17.5,29.88,NNE,22,8.0,12.0,92,0.00,,,0.00,Wunderground v.1.15,2014-02-05 12:12:00,
2014-02-05 07:18:00,19.4,17.5,29.88,NNE,14,8.0,12.0,92,0.00,,,0.00,Wunderground v.1.15,2014-02-05 12:18:00,
2014-02-05 07:24:00,19.4,17.5,29.89,North,5,8.0,12.0,92,0.00,,,0.00,Wunderground v.1.15,2014-02-05 12:24:00,
2014-02-05 07:30:00,19.4,17.5,29.89,North,11,8.0,8.0,92,0.00,,,0.00,Wunderground v.1.15,2014-02-05 12:30:00,
2014-02-05 07:36:00,19.4,17.5,29.90,NNE,16,7.0,12.0,92,0.00,,,0.00,Wunderground v.1.15,2014-02-05 12:36:00,
2014-02-05 07:42:00,19.4,17.2,29.90,NNE,22,8.0,12.0,91,0.00,,,0.00,Wunderground v.1.15,2014-02-05 12:42:00,
2014-02-05 07:48:00,19.3,17.1,29.90,North,11,9.0,12.0,91,0.00,,,0.00,Wunderground v.1.15,2014-02-05 12:48:00,
2014-02-05 07:54:00,19.3,17.1,29.90,NNE,21,9.0,12.0,91,0.00,,,0.00,Wunderground v.1.15,2014-02-05 12:54:00,
2014-02-05 08:00:00,19.2,17.0,29.90,North,5,10.0,10.0,91,0.00,,,0.00,Wunderground v.1.15,2014-02-05 13:00:00,
2014-02-05 08:06:00,19.1,16.9,29.90,North,359,10.0,12.0,91,0.00,,,0.00,Wunderground v.1.15,2014-02-05 13:06:00,
2014-02-05 08:12:00,19.1,16.9,29.90,North,9,10.0,11.0,91,0.00,,,0.00,Wunderground v.1.15,2014-02-05 13:12:00,
2014-02-05 08:18:00,19.1,16.7,29.90,NNE,18,10.0,14.0,90,0.00,,,0.00,Wunderground v.1.15,2014-02-05 13:18:00,
2014-02-05 08:24:00,19.2,16.7,29.91,NNE,26,11.0,12.0,90,0.00,,,0.00,Wunderground v.1.15,2014-02-05 13:24:00,
2014-02-05 08:30:00,19.2,16.7,29.91,NE,48,10.0,10.0,90,0.00,,,0.00,Wunderground v.1.15,2014-02-05 13:30:00,
2014-02-05 08:36:00,19.2,16.7,29.92,NNE,14,10.0,12.0,90,0.00,,,0.00,Wunderground v.1.15,2014-02-05 13:36:00,
2014-02-05 08:42:00,19.3,16.8,29.92,NNE,15,10.0,13.0,90,0.00,,,0.00,Wunderground v.1.15,2014-02-05 13:42:00,
2014-02-05 08:48:00,19.3,16.8,29.92,NE,34,11.0,13.0,90,0.00,,,0.00,Wunderground v.1.15,2014-02-05 13:48:00,
2014-02-05 08:54:00,19.4,16.9,29.92,North,8,12.0,15.0,90,0.00,,,0.00,Wunderground v.1.15,2014-02-05 13:54:00,
2014-02-05 09:00:00,19.5,17.0,29.92,NE,39,12.0,17.0,90,0.00,,,0.00,Wunderground v.1.15,2014-02-05 14:00:00,
2014-02-05 09:06:00,19.6,17.1,29.93,NNE,16,12.0,17.0,90,0.00,,,0.00,Wunderground v.1.15,2014-02-05 14:06:00,
2014-02-05 09:12:00,19.7,17.2,29.93,NNE,19,11.0,13.0,90,0.00,,,0.00,Wunderground v.1.15,2014-02-05 14:12:00,
2014-02-05 09:18:00,19.8,17.1,29.93,North,359,12.0,15.0,89,0.00,,,0.00,Wunderground v.1.15,2014-02-05 14:18:00,
2014-02-05 09:24:00,20.0,17.3,29.94,North,11,12.0,15.0,89,0.00,,,0.00,Wunderground v.1.15,2014-02-05 14:24:00,
2014-02-05 09:30:00,20.1,17.4,29.94,NNE,26,12.0,12.0,89,0.00,,,0.00,Wunderground v.1.15,2014-02-05 14:30:00,
2014-02-05 09:36:00,20.2,17.5,29.95,North,5,12.0,15.0,89,0.00,,,0.00,Wunderground v.1.15,2014-02-05 14:36:00,
2014-02-05 09:42:00,20.4,17.7,29.96,North,359,11.0,12.0,89,0.00,,,0.00,Wunderground v.1.15,2014-02-05 14:42:00,
2014-02-05 09:48:00,20.6,17.9,29.96,North,8,10.0,15.0,89,0.00,,,0.00,Wunderground v.1.15,2014-02-05 14:48:00,
2014-02-05 09:54:00,20.8,17.8,29.97,NNW,347,11.0,14.0,88,0.00,,,0.00,Wunderground v.1.15,2014-02-05 14:54:00,
2014-02-05 10:00:00,21.0,18.0,29.97,NNE,13,10.0,10.0,88,0.00,,,0.00,Wunderground v.1.15,2014-02-05 15:00:00,
2014-02-05 10:06:00,21.2,18.2,29.98,NNW,348,10.0,12.0,88,0.00,,,0.00,Wunderground v.1.15,2014-02-05 15:06:00,
2014-02-05 10:12:00,21.4,18.1,29.98,NNE,20,10.0,12.0,87,0.00,,,0.00,Wunderground v.1.15,2014-02-05 15:12:00,
2014-02-05 10:18:00,21.6,18.3,29.99,North,355,10.0,13.0,87,0.00,,,0.00,Wunderground v.1.15,2014-02-05 15:18:00,
2014-02-05 10:24:00,21.8,18.5,30.00,NNE,17,9.0,12.0,87,0.00,,,0.00,Wunderground v.1.15,2014-02-05 15:24:00,
2014-02-05 10:30:00,21.9,18.4,30.00,NNE,20,9.0,12.0,86,0.00,,,0.00,Wunderground v.1.15,2014-02-05 15:30:00,
2014-02-05 10:36:00,22.1,18.6,30.01,NW,326,9.0,14.0,86,0.00,,,0.00,Wunderground v.1.15,2014-02-05 15:36:00,
2014-02-05 10:42:00,22.2,18.7,30.01,NNE,27,10.0,12.0,86,0.00,,,0.00,Wunderground v.1.15,2014-02-05 15:42:00,
2014-02-05 10:48:00,22.4,18.8,30.02,NW,322,9.0,12.0,86,0.00,,,0.00,Wunderground v.1.15,2014-02-05 15:48:00,
2014-02-05 10:54:00,22.5,18.7,30.02,North,8,9.0,13.0,85,0.00,,,0.00,Wunderground v.1.15,2014-02-05 15:54:00,
2014-02-05 11:00:00,22.6,18.8,30.02,NNW,347,10.0,10.0,85,0.00,,,0.00,Wunderground v.1.15,2014-02-05 16:00:00,
2014-02-05 11:06:00,22.8,19.0,30.03,NNE,20,10.0,12.0,85,0.00,,,0.00,Wunderground v.1.15,2014-02-05 16:06:00,
2014-02-05 11:12:00,22.8,19.0,30.03,NNE,27,10.0,13.0,85,0.00,,,0.00,Wunderground v.1.15,2014-02-05 16:12:00,
2014-02-05 11:18:00,22.9,19.1,30.04,North,357,10.0,13.0,85,0.00,,,0.00,Wunderground v.1.15,2014-02-05 16:18:00,
2014-02-05 11:24:00,23.1,19.0,30.04,NNW,335,9.0,14.0,84,0.00,,,0.00,Wunderground v.1.15,2014-02-05 16:24:00,
2014-02-05 11:30:00,23.4,19.0,30.04,North,349,12.0,12.0,83,0.00,,,0.00,Wunderground v.1.15,2014-02-05 16:30:00,
2014-02-05 11:36:00,23.6,19.2,30.05,NNW,346,12.0,15.0,83,0.00,,,0.00,Wunderground v.1.15,2014-02-05 16:36:00,
2014-02-05 11:42:00,24.0,19.3,30.05,NNW,333,11.0,12.0,82,0.00,,,0.00,Wunderground v.1.15,2014-02-05 16:42:00,
2014-02-05 11:48:00,24.2,19.2,30.05,North,349,11.0,13.0,81,0.00,,,0.00,Wunderground v.1.15,2014-02-05 16:48:00,
2014-02-05 11:54:00,24.0,19.3,30.06,North,355,12.0,13.0,82,0.00,,,0.00,Wunderground v.1.15,2014-02-05 16:54:00,
2014-02-05 12:00:00,23.9,19.2,30.06,NNE,14,12.0,12.0,82,0.00,,,0.00,Wunderground v.1.15,2014-02-05 17:00:00,
2014-02-05 12:06:00,24.2,19.5,30.07,NNW,333,11.0,14.0,82,0.00,,,0.00,Wunderground v.1.15,2014-02-05 17:06:00,
2014-02-05 12:12:00,24.4,19.4,30.07,NW,323,10.0,12.0,81,0.00,,,0.00,Wunderground v.1.15,2014-02-05 17:12:00,
2014-02-05 12:18:00,24.1,19.4,30.08,NNW,335,11.0,17.0,82,0.00,,,0.00,Wunderground v.1.15,2014-02-05 17:18:00,
2014-02-05 12:24:00,24.0,19.3,30.08,NNW,330,11.0,12.0,82,0.00,,,0.00,Wunderground v.1.15,2014-02-05 17:24:00,
2014-02-05 12:30:00,24.1,19.4,30.08,North,358,11.0,12.0,82,0.00,,,0.00,Wunderground v.1.15,2014-02-05 17:30:00,
2014-02-05 12:36:00,23.9,19.2,30.08,NNW,331,10.0,12.0,82,0.00,,,0.00,Wunderground v.1.15,2014-02-05 17:36:00,
2014-02-05 12:42:00,24.0,19.0,30.08,North,1,11.0,12.0,81,0.00,,,0.00,Wunderground v.1.15,2014-02-05 17:42:00,
2014-02-05 12:48:00,24.6,19.0,30.08,NNE,24,11.0,13.0,79,0.00,,,0.00,Wunderground v.1.15,2014-02-05 17:48:00,
2014-02-05 12:54:00,24.6,19.0,30.08,NW,323,11.0,14.0,79,0.00,,,0.00,Wunderground v.1.15,2014-02-05 17:54:00,
2014-02-05 13:00:00,24.7,19.1,30.08,NNW,330,11.0,13.0,79,0.00,,,0.00,Wunderground v.1.15,2014-02-05 18:00:00,
2014-02-05 13:06:00,24.6,19.0,30.08,North,4,11.0,14.0,79,0.00,,,0.00,Wunderground v.1.15,2014-02-05 18:06:00,
2014-02-05 13:12:00,24.8,19.2,30.08,North,358,10.0,12.0,79,0.00,,,0.00,Wunderground v.1.15,2014-02-05 18:12:00,
2014-02-05 13:18:00,25.1,19.5,30.08,NNW,333,10.0,12.0,79,0.00,,,0.00,Wunderground v.1.15,2014-02-05 18:18:00,
2014-02-05 13:24:00,25.5,19.9,30.09,NNW,344,9.0,12.0,79,0.00,,,0.00,Wunderground v.1.15,2014-02-05 18:24:00,
2014-02-05 13:30:00,25.7,20.1,30.09,North,8,9.0,12.0,79,0.00,,,0.00,Wunderground v.1.15,2014-02-05 18:30:00,
2014-02-05 13:36:00,25.4,19.5,30.09,North,9,10.0,13.0,78,0.00,,,0.00,Wunderground v.1.15,2014-02-05 18:36:00,
2014-02-05 13:42:00,25.1,19.5,30.10,NNW,347,11.0,14.0,79,0.00,,,0.00,Wunderground v.1.15,2014-02-05 18:42:00,
2014-02-05 13:48:00,25.0,19.7,30.10,NNW,332,12.0,15.0,80,0.00,,,0.00,Wunderground v.1.15,2014-02-05 18:48:00,
2014-02-05 13:54:00,24.9,19.0,30.10,North,354,12.0,13.0,78,0.00,,,0.00,Wunderground v.1.15,2014-02-05 18:54:00,
2014-02-05 14:00:00,25.3,20.0,30.11,NNW,342,9.0,9.0,80,0.00,,,0.00,Wunderground v.1.15,2014-02-05 19:00:00,
2014-02-05 14:06:00,25.3,19.1,30.11,North,8,9.0,15.0,77,0.00,,,0.00,Wunderground v.1.15,2014-02-05 19:06:00,
2014-02-05 14:12:00,25.3,19.4,30.11,NNW,333,10.0,12.0,78,0.00,,,0.00,Wunderground v.1.15,2014-02-05 19:12:00,
2014-02-05 14:18:00,25.3,19.4,30.11,NW,323,10.0,12.0,78,0.00,,,0.00,Wunderground v.1.15,2014-02-05 19:18:00,
2014-02-05 14:24:00,25.2,19.3,30.12,NNW,338,10.0,12.0,78,0.00,,,0.00,Wunderground v.1.15,2014-02-05 19:24:00,
2014-02-05 14:30:00,24.9,18.7,30.12,NNW,337,11.0,11.0,77,0.00,,,0.00,Wunderground v.1.15,2014-02-05 19:30:00,
2014-02-05 14:36:00,24.9,18.7,30.13,NNE,25,11.0,12.0,77,0.00,,,0.00,Wunderground v.1.15,2014-02-05 19:36:00,
2014-02-05 14:42:00,24.9,18.7,30.13,NNW,347,10.0,12.0,77,0.00,,,0.00,Wunderground v.1.15,2014-02-05 19:42:00,
2014-02-05 14:48:00,25.1,18.9,30.13,NNW,340,9.0,12.0,77,0.00,,,0.00,Wunderground v.1.15,2014-02-05 19:48:00,
2014-02-05 14:54:00,25.0,19.1,30.14,North,349,8.0,12.0,78,0.00,,,0.00,Wunderground v.1.15,2014-02-05 19:54:00,
2014-02-05 15:00:00,25.0,19.1,30.14,NNW,330,9.0,9.0,78,0.00,,,0.00,Wunderground v.1.15,2014-02-05 20:00:00,
2014-02-05 15:06:00,24.8,19.2,30.14,North,356,9.0,12.0,79,0.00,,,0.00,Wunderground v.1.15,2014-02-05 20:06:00,
2014-02-05 15:12:00,24.4,18.2,30.15,NNW,335,11.0,13.0,77,0.00,,,0.00,Wunderground v.1.15,2014-02-05 20:12:00,
2014-02-05 15:18:00,24.4,18.5,30.15,NW,304,11.0,13.0,78,0.00,,,0.00,Wunderground v.1.15,2014-02-05 20:18:00,
2014-02-05 15:24:00,24.2,18.3,30.16,NNW,347,11.0,17.0,78,0.00,,,0.00,Wunderground v.1.15,2014-02-05 20:24:00,
2014-02-05 15:30:00,24.0,18.1,30.16,NNW,327,11.0,12.0,78,0.00,,,0.00,Wunderground v.1.15,2014-02-05 20:30:00,
2014-02-05 15:36:00,24.3,18.4,30.17,NW,321,11.0,14.0,78,0.00,,,0.00,Wunderground v.1.15,2014-02-05 20:36:00,
2014-02-05 15:42:00,24.2,18.6,30.17,NNW,337,11.0,12.0,79,0.00,,,0.00,Wunderground v.1.15,2014-02-05 20:42:00,
2014-02-05 15:48:00,24.5,19.2,30.18,NW,318,10.0,13.0,80,0.00,,,0.00,Wunderground v.1.15,2014-02-05 20:48:00,
2014-02-05 15:54:00,24.6,19.9,30.18,NW,305,10.0,13.0,82,0.00,,,0.00,Wunderground v.1.15,2014-02-05 20:54:00,
2014-02-05 16:00:00,24.1,19.4,30.18,NNW,331,11.0,11.0,82,0.00,,,0.00,Wunderground v.1.15,2014-02-05 21:00:00,
2014-02-05 16:06:00,23.7,18.4,30.18,NNW,335,11.0,14.0,80,0.00,,,0.00,Wunderground v.1.15,2014-02-05 21:06:00,
2014-02-05 16:12:00,23.5,18.2,30.19,North,355,11.0,12.0,80,0.00,,,0.00,Wunderground v.1.15,2014-02-05 21:12:00,
2014-02-05 16:18:00,23.6,18.3,30.20,NNW,340,9.0,12.0,80,0.00,,,0.00,Wunderground v.1.15,2014-02-05 21:18:00,
2014-02-05 16:24:00,23.5,18.5,30.20,NW,305,9.0,12.0,81,0.00,,,0.00,Wunderground v.1.15,2014-02-05 21:24:00,
2014-02-05 16:30:00,23.4,19.3,30.21,NW,315,9.0,9.0,84,0.00,,,0.00,Wunderground v.1.15,2014-02-05 21:30:00,
2014-02-05 16:36:00,23.3,19.5,30.21,NW,314,7.0,12.0,85,0.00,,,0.00,Wunderground v.1.15,2014-02-05 21:36:00,
2014-02-05 16:42:00,23.3,19.7,30.22,NW,316,7.0,12.0,86,0.00,,,0.00,Wunderground v.1.15,2014-02-05 21:42:00,
2014-02-05 16:48:00,23.3,19.7,30.23,WNW,294,8.0,12.0,86,0.00,,,0.00,Wunderground v.1.15,2014-02-05 21:48:00,
2014-02-05 16:54:00,23.1,19.3,30.23,NW,308,9.0,12.0,85,0.00,,,0.00,Wunderground v.1.15,2014-02-05 21:54:00,
2014-02-05 17:00:00,23.0,19.4,30.24,WNW,300,9.0,9.0,86,0.00,,,0.00,Wunderground v.1.15,2014-02-05 22:00:00,
2014-02-05 17:06:00,22.9,19.1,30.23,NW,316,9.0,12.0,85,0.00,,,0.00,Wunderground v.1.15,2014-02-05 22:06:00,
2014-02-05 17:12:00,22.8,19.0,30.24,NW,312,10.0,12.0,85,0.00,,,0.00,Wunderground v.1.15,2014-02-05 22:12:00,
2014-02-05 17:18:00,22.7,18.9,30.24,NW,310,9.0,12.0,85,0.00,,,0.00,Wunderground v.1.15,2014-02-05 22:18:00,
2014-02-05 17:24:00,22.6,18.8,30.24,NNW,330,8.0,12.0,85,0.00,,,0.00,Wunderground v.1.15,2014-02-05 22:24:00,
2014-02-05 17:30:00,22.5,18.7,30.25,NW,312,7.0,12.0,85,0.00,,,0.00,Wunderground v.1.15,2014-02-05 22:30:00,
2014-02-05 17:36:00,22.4,18.6,30.25,NW,314,7.0,12.0,85,0.00,,,0.00,Wunderground v.1.15,2014-02-05 22:36:00,
2014-02-05 17:42:00,22.2,18.4,30.25,NW,305,8.0,12.0,85,0.00,,,0.00,Wunderground v.1.15,2014-02-05 22:42:00,
2014-02-05 17:48:00,22.2,18.4,30.25,NW,308,7.0,12.0,85,0.00,,,0.00,Wunderground v.1.15,2014-02-05 22:48:00,
2014-02-05 17:54:00,22.2,18.4,30.26,NW,314,7.0,12.0,85,0.00,,,0.00,Wunderground v.1.15,2014-02-05 22:54:00,
2014-02-05 18:00:00,22.2,18.4,30.26,NW,305,7.0,12.0,85,0.00,,,0.00,Wunderground v.1.15,2014-02-05 23:00:00,
2014-02-05 18:06:00,22.1,18.3,30.27,NW,304,7.0,12.0,85,0.00,,,0.00,Wunderground v.1.15,2014-02-05 23:06:00,
2014-02-05 18:12:00,22.0,18.5,30.27,NW,308,7.0,12.0,86,0.00,,,0.00,Wunderground v.1.15,2014-02-05 23:12:00,
2014-02-05 18:18:00,21.8,18.3,30.27,NW,308,6.0,12.0,86,0.00,,,0.00,Wunderground v.1.15,2014-02-05 23:18:00,
2014-02-05 18:24:00,21.6,18.1,30.27,NW,317,6.0,12.0,86,0.00,,,0.00,Wunderground v.1.15,2014-02-05 23:24:00,
2014-02-05 18:30:00,21.5,18.0,30.27,NW,315,6.0,6.0,86,0.00,,,0.00,Wunderground v.1.15,2014-02-05 23:30:00,
2014-02-05 18:36:00,21.0,17.2,30.28,NW,308,6.0,12.0,85,0.00,,,0.00,Wunderground v.1.15,2014-02-05 23:36:00,
2014-02-05 18:42:00,20.7,17.2,30.28,NW,311,5.0,12.0,86,0.00,,,0.00,Wunderground v.1.15,2014-02-05 23:42:00,
2014-02-05 18:48:00,20.5,17.0,30.29,NW,308,5.0,12.0,86,0.00,,,0.00,Wunderground v.1.15,2014-02-05 23:48:00,
2014-02-05 18:54:00,20.4,16.9,30.29,NW,314,5.0,12.0,86,0.00,,,0.00,Wunderground v.1.15,2014-02-05 23:54:00,
2014-02-05 19:00:00,20.6,17.3,30.29,WNW,302,4.0,12.0,87,0.00,,,0.00,Wunderground v.1.15,2014-02-06 00:00:00,
2014-02-05 19:06:00,20.8,17.8,30.30,WNW,298,4.0,12.0,88,0.00,,,0.00,Wunderground v.1.15,2014-02-06 00:06:00,
2014-02-05 19:12:00,21.0,18.0,30.30,WNW,290,4.0,6.0,88,0.00,,,0.00,Wunderground v.1.15,2014-02-06 00:12:00,
2014-02-05 19:18:00,21.3,18.0,30.31,WNW,300,6.0,12.0,87,0.00,,,0.00,Wunderground v.1.15,2014-02-06 00:18:00,
2014-02-05 19:24:00,21.3,17.8,30.31,WNW,297,7.0,12.0,86,0.00,,,0.00,Wunderground v.1.15,2014-02-06 00:24:00,
2014-02-05 19:30:00,21.1,17.3,30.31,NW,304,7.0,12.0,85,0.00,,,0.00,Wunderground v.1.15,2014-02-06 00:30:00,
2014-02-05 19:36:00,20.9,16.8,30.31,WNW,303,8.0,12.0,84,0.00,,,0.00,Wunderground v.1.15,2014-02-06 00:36:00,
2014-02-05 19:42:00,20.6,16.3,30.31,NW,312,8.0,12.0,83,0.00,,,0.00,Wunderground v.1.15,2014-02-06 00:42:00,
2014-02-05 19:48:00,20.5,16.2,30.31,NW,308,9.0,12.0,83,0.00,,,0.00,Wunderground v.1.15,2014-02-06 00:48:00,
2014-02-05 19:54:00,20.3,15.7,30.32,NW,304,9.0,12.0,82,0.00,,,0.00,Wunderground v.1.15,2014-02-06 00:54:00,
2014-02-05 20:00:00,19.9,15.0,30.32,NW,308,9.0,9.0,81,0.00,,,0.00,Wunderground v.1.15,2014-02-06 01:00:00,
2014-02-05 20:06:00,19.3,14.4,30.32,NW,314,8.0,12.0,81,0.00,,,0.00,Wunderground v.1.15,2014-02-06 01:06:00,
2014-02-05 20:12:00,18.5,13.9,30.32,NW,308,6.0,12.0,82,0.00,,,0.00,Wunderground v.1.15,2014-02-06 01:12:00,
2014-02-05 20:18:00,18.0,13.4,30.33,WNW,301,5.0,12.0,82,0.00,,,0.00,Wunderground v.1.15,2014-02-06 01:18:00,
2014-02-05 20:24:00,17.4,12.6,30.33,NW,311,5.0,12.0,81,0.00,,,0.00,Wunderground v.1.15,2014-02-06 01:24:00,
2014-02-05 20:30:00,17.0,12.5,30.33,NW,310,4.0,12.0,82,0.00,,,0.00,Wunderground v.1.15,2014-02-06 01:30:00,
2014-02-05 20:36:00,16.1,11.3,30.33,NW,311,4.0,12.0,81,0.00,,,0.00,Wunderground v.1.15,2014-02-06 01:36:00,
2014-02-05 20:42:00,15.2,10.7,30.33,NW,308,3.0,12.0,82,0.00,,,0.00,Wunderground v.1.15,2014-02-06 01:42:00,
2014-02-05 20:48:00,14.6,10.4,30.33,NW,308,3.0,12.0,83,0.00,,,0.00,Wunderground v.1.15,2014-02-06 01:48:00,
2014-02-05 20:54:00,13.8,9.3,30.33,NW,316,2.0,12.0,82,0.00,,,0.00,Wunderground v.1.15,2014-02-06 01:54:00,
2014-02-05 21:00:00,13.7,9.5,30.34,WNW,287,2.0,2.0,83,0.00,,,0.00,Wunderground v.1.15,2014-02-06 02:00:00,
2014-02-05 21:06:00,13.4,9.2,30.35,WSW,255,1.0,12.0,83,0.00,,,0.00,Wunderground v.1.15,2014-02-06 02:06:00,
2014-02-05 21:12:00,12.0,7.3,30.35,SW,232,1.0,12.0,81,0.00,,,0.00,Wunderground v.1.15,2014-02-06 02:12:00,
2014-02-05 21:18:00,10.7,6.6,30.35,West,266,1.0,12.0,83,0.00,,,0.00,Wunderground v.1.15,2014-02-06 02:18:00,
2014-02-05 21:24:00,11.8,8.9,30.36,WNW,283,2.0,12.0,88,0.00,,,0.00,Wunderground v.1.15,2014-02-06 02:24:00,
2014-02-05 21:30:00,13.3,10.2,30.36,WNW,294,2.0,12.0,87,0.00,,,0.00,Wunderground v.1.15,2014-02-06 02:30:00,
2014-02-05 21:36:00,14.6,11.2,30.36,WNW,291,2.0,12.0,86,0.00,,,0.00,Wunderground v.1.15,2014-02-06 02:36:00,
2014-02-05 21:42:00,15.3,11.6,30.36,WNW,291,3.0,12.0,85,0.00,,,0.00,Wunderground v.1.15,2014-02-06 02:42:00,
2014-02-05 21:48:00,15.9,11.9,30.37,NW,312,4.0,12.0,84,0.00,,,0.00,Wunderground v.1.15,2014-02-06 02:48:00,
2014-02-05 21:54:00,16.4,12.1,30.37,WNW,300,5.0,12.0,83,0.00,,,0.00,Wunderground v.1.15,2014-02-06 02:54:00,
2014-02-05 22:00:00,16.4,11.9,30.37,WNW,295,5.0,5.0,82,0.00,,,0.00,Wunderground v.1.15,2014-02-06 03:00:00,
2014-02-05 22:06:00,15.9,11.7,30.38,WNW,288,4.0,12.0,83,0.00,,,0.00,Wunderground v.1.15,2014-02-06 03:06:00,
2014-02-05 22:12:00,15.9,11.4,30.38,WNW,291,5.0,12.0,82,0.00,,,0.00,Wunderground v.1.15,2014-02-06 03:12:00,
2014-02-05 22:18:00,15.9,11.4,30.38,WNW,302,6.0,12.0,82,0.00,,,0.00,Wunderground v.1.15,2014-02-06 03:18:00,
2014-02-05 22:24:00,15.7,10.9,30.38,WNW,302,7.0,12.0,81,0.00,,,0.00,Wunderground v.1.15,2014-02-06 03:24:00,
2014-02-05 22:30:00,15.6,10.8,30.38,WNW,302,6.0,12.0,81,0.00,,,0.00,Wunderground v.1.15,2014-02-06 03:30:00,
2014-02-05 22:36:00,15.4,10.9,30.39,NW,304,6.0,12.0,82,0.00,,,0.00,Wunderground v.1.15,2014-02-06 03:36:00,
2014-02-05 22:42:00,15.3,10.8,30.38,NW,308,6.0,12.0,82,0.00,,,0.00,Wunderground v.1.15,2014-02-06 03:42:00,
2014-02-05 22:48:00,15.5,11.0,30.39,NW,305,5.0,12.0,82,0.00,,,0.00,Wunderground v.1.15,2014-02-06 03:48:00,
2014-02-05 22:54:00,15.6,11.1,30.39,WNW,302,5.0,12.0,82,0.00,,,0.00,Wunderground v.1.15,2014-02-06 03:54:00,
2014-02-05 23:00:00,15.6,11.1,30.39,NW,308,5.0,12.0,82,0.00,,,0.00,Wunderground v.1.15,2014-02-06 04:00:00,
2014-02-05 23:06:00,15.8,11.3,30.39,WNW,298,6.0,12.0,82,0.00,,,0.00,Wunderground v.1.15,2014-02-06 04:06:00,
2014-02-05 23:12:00,15.9,11.4,30.39,WNW,295,6.0,12.0,82,0.00,,,0.00,Wunderground v.1.15,2014-02-06 04:12:00,
2014-02-05 23:18:00,15.9,11.4,30.39,NW,310,6.0,12.0,82,0.00,,,0.00,Wunderground v.1.15,2014-02-06 04:18:00,
2014-02-05 23:24:00,15.8,11.3,30.40,WNW,302,6.0,12.0,82,0.00,,,0.00,Wunderground v.1.15,2014-02-06 04:24:00,
2014-02-05 23:30:00,15.9,11.1,30.40,WNW,301,6.0,6.0,81,0.00,,,0.00,Wunderground v.1.15,2014-02-06 04:30:00,
2014-02-05 23:36:00,15.9,11.4,30.40,NW,305,6.0,12.0,82,0.00,,,0.00,Wunderground v.1.15,2014-02-06 04:36:00,
2014-02-05 23:42:00,15.8,11.3,30.40,NW,315,6.0,12.0,82,0.00,,,0.00,Wunderground v.1.15,2014-02-06 04:42:00,
2014-02-05 23:48:00,15.9,11.4,30.40,NW,319,6.0,12.0,82,0.00,,,0.00,Wunderground v.1.15,2014-02-06 04:48:00,
2014-02-05 23:54:00,16.0,11.5,30.40,NW,319,7.0,12.0,82,0.00,,,0.00,Wunderground v.1.15,2014-02-06 04:54:00,